Ashley, Wisconsin
Current Conditions -  °F | °C
As of 4:45 PM on Saturday 25 Oct 2014 (Local Time) from KCWA Reporting Station
Clear Clear  
Wind Chill: 57°   Ceiling: Unl
Heat Index: 57°   Visibility: 10mi
Dew Point: 27°   Wind: 18mph
Humidity: 31%   Direction: 280°W
Pressure: 29.9"   Gusts: 28mph
Location:  44.7605°N, 89.5918°W
Report Text: KCWA 252145Z 28016G24KT 10SM SKC 14/M03 A2990
Loading
Personal Weather Stations






























Interactive Weather Map New forecast layout! Learn more

10-Day Weather Forecast

Advertisements
Track Severe Weather on mobile